Time;durP1;ratioP1;P1;durP2;ratioP2;P2;SDS_P1;SDS_P2;PMS_P1;PMS_P2;Temp;Humidity;BMP_temperature;BMP_pressure;BME280_temperature;BME280_humidity;BME280_pressure;Samples;Min_cycle;Max_cycle;Signal;HPM_P1;HPM_P2
2022/08/17 00:00:08;;;;;;;29.57;26.77;;;;;;;20.30;84.77;100705.88;171975;28;1034;-66
2022/08/17 00:00:18;;;;;;;28.91;26.13;;;;;;;20.32;84.60;100714.53;171971;28;1256;-66
2022/08/17 00:00:26;;;;;;;28.13;25.53;;;;;;;20.31;84.85;100703.09;171998;28;856;-66
2022/08/17 00:00:33;;;;;;;28.17;25.45;;;;;;;20.31;84.95;100708.41;171962;28;1251;-66
2022/08/17 00:00:39;;;;;;;28.10;25.27;;;;;;;20.32;84.91;100706.56;171989;28;1015;-66
2022/08/17 00:00:48;;;;;;;28.40;25.48;;;;;;;20.31;84.66;100700.47;171925;28;1042;-66
2022/08/17 00:00:59;;;;;;;29.04;25.94;;;;;;;20.32;84.73;100709.22;171927;28;1090;-66
2022/08/17 00:01:30;;;;;;;29.99;26.92;;;;;;;20.30;84.83;100709.38;172442;28;1259;-66
2022/08/17 00:01:36;;;;;;;30.06;27.04;;;;;;;20.30;84.96;100706.75;172628;28;1284;-67
2022/08/17 00:01:42;;;;;;;29.33;26.30;;;;;;;20.30;84.95;100705.88;172697;28;1071;-66
2022/08/17 00:01:47;;;;;;;28.95;26.05;;;;;;;20.29;84.92;100710.34;172723;28;887;-66
2022/08/17 00:01:54;;;;;;;28.67;25.90;;;;;;;20.30;85.01;100711.19;172708;28;970;-66
2022/08/17 00:02:00;;;;;;;28.03;25.43;;;;;;;20.29;84.75;100705.03;172736;28;974;-67
2022/08/17 00:02:05;;;;;;;28.05;25.50;;;;;;;20.31;84.95;100707.56;172740;28;974;-66
2022/08/17 00:02:10;;;;;;;28.00;25.30;;;;;;;20.31;84.79;100707.56;172722;28;1085;-66
2022/08/17 00:02:16;;;;;;;27.73;25.13;;;;;;;20.31;84.83;100713.69;172745;28;966;-66
2022/08/17 00:02:21;;;;;;;27.95;25.33;;;;;;;20.31;84.78;100704.91;172682;28;844;-67
2022/08/17 00:02:27;;;;;;;28.13;25.43;;;;;;;20.32;84.84;100704.78;172749;28;934;-66
2022/08/17 00:02:32;;;;;;;28.08;25.40;;;;;;;20.31;84.63;100705.75;172657;28;1105;-66
2022/08/17 00:03:09;;;;;;;27.67;25.20;;;;;;;20.29;84.96;100709.50;172742;28;935;-66
2022/08/17 00:03:38;;;;;;;28.49;25.85;;;;;;;20.29;85.14;100699.72;172555;28;1517;-66
2022/08/17 00:03:46;;;;;;;29.14;26.39;;;;;;;20.29;85.19;100705.03;172583;28;2406;-66
2022/08/17 00:03:52;;;;;;;28.60;25.67;;;;;;;20.29;85.14;100699.72;172499;28;1512;-66
2022/08/17 00:03:58;;;;;;;28.90;26.00;;;;;;;20.28;85.19;100699.88;172670;28;1045;-66
2022/08/17 00:04:03;;;;;;;29.23;26.27;;;;;;;20.28;85.15;100699.88;172704;28;981;-66
2022/08/17 00:04:09;;;;;;;29.73;26.77;;;;;;;20.27;85.29;100701.69;172653;28;967;-66
2022/08/17 00:04:18;;;;;;;29.92;26.95;;;;;;;20.27;85.26;100701.69;172630;28;872;-66
2022/08/17 00:04:23;;;;;;;30.47;27.53;;;;;;;20.29;85.57;100698.91;172640;28;1100;-67
2022/08/17 00:04:28;;;;;;;30.50;27.50;;;;;;;20.30;85.38;100704.09;171893;28;924;-66
2022/08/17 00:04:34;;;;;;;30.70;27.67;;;;;;;20.29;85.44;100699.72;172015;28;911;-66
2022/08/17 00:04:39;;;;;;;30.80;27.70;;;;;;;20.30;85.26;100706.75;171958;28;998;-66
2022/08/17 00:04:44;;;;;;;30.70;27.67;;;;;;;20.30;85.31;100701.44;171971;28;844;-67
2022/08/17 00:04:50;;;;;;;30.17;27.10;;;;;;;20.31;85.17;100700.47;171952;28;836;-66
2022/08/17 00:04:55;;;;;;;29.63;26.65;;;;;;;20.30;85.00;100696.13;171969;28;911;-66
2022/08/17 00:05:00;;;;;;;29.27;26.23;;;;;;;20.31;85.12;100697.81;171960;28;1069;-67
2022/08/17 00:05:06;;;;;;;28.92;26.02;;;;;;;20.31;85.09;100700.47;171993;28;1034;-67
2022/08/17 00:05:14;;;;;;;28.43;25.67;;;;;;;20.31;85.10;100696.97;172062;28;867;-66
2022/08/17 00:05:20;;;;;;;28.15;25.48;;;;;;;20.30;84.96;100701.44;172635;28;980;-66
2022/08/17 00:05:30;;;;;;;28.83;26.13;;;;;;;20.29;85.21;100697.09;172692;28;875;-67
2022/08/17 00:05:43;;;;;;;29.48;26.67;;;;;;;20.27;85.23;100696.41;171815;28;1501;-66
2022/08/17 00:05:57;;;;;;;30.73;27.70;;;;;;;20.28;85.24;100697.22;171964;28;1265;-66
2022/08/17 00:06:13;;;;;;;32.50;29.29;;;;;;;20.29;85.32;100705.03;171954;28;1258;-66
2022/08/17 00:06:26;;;;;;;32.63;29.51;;;;;;;20.29;85.42;100698.91;171937;28;1267;-66
2022/08/17 00:06:34;;;;;;;30.95;28.05;;;;;;;20.30;85.30;100704.09;172644;28;1279;-66
2022/08/17 00:06:39;;;;;;;29.82;27.00;;;;;;;20.30;85.32;100701.44;171835;28;1253;-66
2022/08/17 00:06:45;;;;;;;30.20;27.23;;;;;;;20.31;85.28;100699.59;171185;28;1409;-66
2022/08/17 00:06:52;;;;;;;30.03;27.13;;;;;;;20.31;85.40;100696.97;171308;28;875;-67
2022/08/17 00:06:57;;;;;;;29.80;26.88;;;;;;;20.31;85.40;100699.59;170545;29;1204;-66
2022/08/17 00:07:02;;;;;;;30.33;27.33;;;;;;;20.31;85.32;100697.81;170642;29;883;-66
2022/08/17 00:07:08;;;;;;;30.27;27.35;;;;;;;20.31;85.40;100697.81;170639;29;1038;-66
2022/08/17 00:07:13;;;;;;;29.97;27.17;;;;;;;20.31;85.29;100703.09;170655;29;908;-66
2022/08/17 00:07:19;;;;;;;29.88;27.08;;;;;;;20.30;85.19;100696.13;170632;29;987;-66
2022/08/17 00:07:24;;;;;;;30.00;27.17;;;;;;;20.30;85.35;100696.13;170629;29;912;-67
2022/08/17 00:07:29;;;;;;;30.23;27.40;;;;;;;20.29;85.27;100697.09;170660;29;983;-66
2022/08/17 00:07:35;;;;;;;30.08;27.20;;;;;;;20.29;85.38;100696.25;171142;28;837;-67
2022/08/17 00:07:40;;;;;;;30.10;27.13;;;;;;;20.30;85.31;100698.78;171317;28;868;-66
2022/08/17 00:07:45;;;;;;;30.10;27.10;;;;;;;20.30;85.30;100700.59;171203;28;1207;-66
2022/08/17 00:07:51;;;;;;;29.80;26.85;;;;;;;20.30;85.33;100700.59;171158;28;1042;-66
2022/08/17 00:07:57;;;;;;;29.90;26.97;;;;;;;20.30;85.42;100695.28;171213;28;902;-66
2022/08/17 00:08:03;;;;;;;30.08;27.08;;;;;;;20.30;85.57;100690.84;171286;28;1089;-66
2022/08/17 00:08:10;;;;;;;30.25;27.25;;;;;;;20.30;85.24;100701.44;171328;28;971;-66
2022/08/17 00:08:29;;;;;;;30.73;27.77;;;;;;;20.31;85.46;100696.97;171323;28;1334;-66
2022/08/17 00:08:40;;;;;;;30.35;27.42;;;;;;;20.32;85.26;100702.13;171337;28;1263;-66
2022/08/17 00:08:51;;;;;;;28.56;25.80;;;;;;;20.32;85.18;100696.81;172615;28;1277;-66
2022/08/17 00:09:04;;;;;;;27.88;25.11;;;;;;;20.33;85.19;100700.31;172649;28;1180;-67
2022/08/17 00:09:09;;;;;;;28.81;26.05;;;;;;;20.33;85.29;100701.16;172634;28;1269;-66
2022/08/17 00:09:16;;;;;;;29.53;26.67;;;;;;;20.33;85.21;100701.16;172637;28;849;-66
2022/08/17 00:09:21;;;;;;;28.93;26.07;;;;;;;20.33;85.32;100698.50;172625;28;970;-66
2022/08/17 00:09:27;;;;;;;28.90;25.90;;;;;;;20.35;85.28;100692.25;172642;28;946;-66
2022/08/17 00:09:32;;;;;;;28.43;25.43;;;;;;;20.34;85.25;100696.69;172650;28;1092;-66
2022/08/17 00:09:37;;;;;;;28.10;25.10;;;;;;;20.33;85.14;100695.84;172666;28;931;-67
2022/08/17 00:09:43;;;;;;;27.30;24.55;;;;;;;20.32;85.17;100694.19;172634;28;947;-67
2022/08/17 00:09:48;;;;;;;27.53;24.83;;;;;;;20.31;85.51;100695.16;172648;28;1237;-67
2022/08/17 00:09:54;;;;;;;27.73;25.13;;;;;;;20.28;85.72;100697.22;172636;28;828;-66
2022/08/17 00:09:59;;;;;;;27.90;25.30;;;;;;;20.27;85.84;100692.91;172693;28;832;-67
2022/08/17 00:10:05;;;;;;;27.93;25.30;;;;;;;20.26;85.69;100696.53;172703;28;883;-66
2022/08/17 00:10:10;;;;;;;28.70;25.90;;;;;;;20.26;85.64;100693.88;172746;28;879;-66
2022/08/17 00:10:16;;;;;;;29.05;26.15;;;;;;;20.26;85.57;100694.72;172697;28;827;-66
2022/08/17 00:10:22;;;;;;;29.43;26.47;;;;;;;20.27;85.87;100696.41;172685;28;1181;-66
2022/08/17 00:10:28;;;;;;;29.80;26.90;;;;;;;20.26;85.73;100700.03;172699;28;1128;-66
2022/08/17 00:10:34;;;;;;;30.30;27.38;;;;;;;20.27;85.74;100696.41;172685;28;863;-66
2022/08/17 00:10:42;;;;;;;30.60;27.70;;;;;;;20.28;85.69;100698.06;172706;28;875;-66
2022/08/17 00:10:50;;;;;;;31.07;28.17;;;;;;;20.28;85.65;100697.22;172740;28;950;-66
2022/08/17 00:10:57;;;;;;;30.70;27.82;;;;;;;20.27;85.58;100696.41;172688;28;1137;-66
2022/08/17 00:11:12;;;;;;;30.55;27.70;;;;;;;20.30;85.61;100693.50;172717;28;895;-66
2022/08/17 00:11:29;;;;;;;30.05;27.34;;;;;;;20.31;85.56;100703.09;172699;28;1439;-66
2022/08/17 00:11:42;;;;;;;29.41;26.70;;;;;;;20.29;85.50;100694.44;172718;28;1256;-67
2022/08/17 00:11:48;;;;;;;28.90;26.13;;;;;;;20.29;85.60;100697.09;172717;28;1271;-65
2022/08/17 00:11:54;;;;;;;29.70;26.80;;;;;;;20.28;85.68;100698.06;172712;28;1015;-66
2022/08/17 00:12:01;;;;;;;29.73;26.97;;;;;;;20.28;85.53;100698.06;172629;28;890;-66
2022/08/17 00:12:06;;;;;;;29.98;27.28;;;;;;;20.29;85.72;100696.25;172726;28;990;-66
2022/08/17 00:12:12;;;;;;;30.50;27.67;;;;;;;20.29;85.68;100699.72;172628;28;1413;-66
2022/08/17 00:12:18;;;;;;;29.67;26.93;;;;;;;20.29;85.72;100697.09;172662;28;855;-66
2022/08/17 00:12:24;;;;;;;28.90;26.30;;;;;;;20.30;85.62;100700.59;173230;28;1127;-66
2022/08/17 00:12:29;;;;;;;28.47;25.83;;;;;;;20.30;85.72;100693.50;173287;28;1025;-66
2022/08/17 00:12:40;;;;;;;28.20;25.58;;;;;;;20.31;85.75;100696.97;173349;28;974;-66
2022/08/17 00:12:46;;;;;;;27.46;24.87;;;;;;;20.29;85.75;100697.09;173277;28;1266;-66
2022/08/17 00:12:51;;;;;;;27.63;25.03;;;;;;;20.29;85.60;100701.56;173334;28;1008;-66
2022/08/17 00:12:57;;;;;;;27.92;25.27;;;;;;;20.28;85.82;100692.75;173340;28;1104;-66
2022/08/17 00:13:18;;;;;;;28.37;25.63;;;;;;;20.26;85.90;100694.72;173328;28;1037;-66
2022/08/17 00:13:32;;;;;;;29.34;26.42;;;;;;;20.28;85.92;100699.88;173294;28;1383;-66
2022/08/17 00:13:43;;;;;;;30.15;27.14;;;;;;;20.28;85.89;100700.72;173343;28;1274;-66
2022/08/17 00:13:57;;;;;;;30.69;27.42;;;;;;;20.28;85.88;100692.75;173167;28;2102;-67
2022/08/17 00:14:16;;;;;;;30.35;27.24;;;;;;;20.27;86.03;100692.91;173247;28;1261;-67
2022/08/17 00:14:22;;;;;;;29.73;26.92;;;;;;;20.22;86.26;100693.28;173077;28;1439;-66
2022/08/17 00:14:28;;;;;;;29.57;26.77;;;;;;;20.24;86.12;100696.66;172562;28;907;-66
2022/08/17 00:14:35;;;;;;;29.82;27.02;;;;;;;20.24;86.17;100690.50;172638;28;977;-66
2022/08/17 00:14:40;;;;;;;30.27;27.40;;;;;;;20.24;86.13;100691.34;172684;28;950;-67
2022/08/17 00:14:45;;;;;;;30.58;27.63;;;;;;;20.24;86.10;100691.34;172659;28;836;-66
2022/08/17 00:14:51;;;;;;;30.83;27.80;;;;;;;20.26;86.01;100693.88;172667;28;898;-66
2022/08/17 00:14:56;;;;;;;30.97;27.90;;;;;;;20.27;86.17;100695.53;172636;28;1147;-66
2022/08/17 00:15:04;;;;;;;30.63;27.55;;;;;;;20.26;86.04;100692.06;172645;28;859;-66
2022/08/17 00:15:12;;;;;;;30.17;27.27;;;;;;;20.28;85.88;100687.47;172682;28;1157;-66
2022/08/17 00:15:21;;;;;;;30.00;27.02;;;;;;;20.28;85.86;100697.22;172645;28;911;-66
2022/08/17 00:15:27;;;;;;;29.96;27.04;;;;;;;20.29;85.81;100690.97;172610;28;1175;-66
2022/08/17 00:15:33;;;;;;;30.33;27.40;;;;;;;20.29;85.88;100694.44;172656;28;983;-66
2022/08/17 00:15:38;;;;;;;30.08;27.13;;;;;;;20.29;85.91;100689.13;172662;28;939;-66
2022/08/17 00:15:45;;;;;;;29.45;26.63;;;;;;;20.29;85.83;100686.50;172676;28;875;-66
2022/08/17 00:15:54;;;;;;;28.50;25.87;;;;;;;20.30;85.42;100693.50;172654;28;1125;-66
2022/08/17 00:16:08;;;;;;;27.83;25.21;;;;;;;20.29;85.80;100689.13;172628;28;1083;-66
2022/08/17 00:16:34;;;;;;;27.45;24.84;;;;;;;20.30;85.82;100690.84;172593;28;1272;-66
2022/08/17 00:16:48;;;;;;;28.19;25.49;;;;;;;20.32;85.82;100691.53;172677;28;1253;-67
2022/08/17 00:16:53;;;;;;;27.94;25.23;;;;;;;20.29;85.80;100689.13;172665;28;1277;-66
2022/08/17 00:16:59;;;;;;;28.40;25.60;;;;;;;20.30;85.80;100685.53;172491;28;1306;-66
2022/08/17 00:17:05;;;;;;;28.37;25.63;;;;;;;20.29;85.66;100683.84;172656;28;1022;-67
2022/08/17 00:17:10;;;;;;;28.58;25.80;;;;;;;20.28;85.83;100682.16;171870;28;1034;-66
2022/08/17 00:17:17;;;;;;;29.20;26.35;;;;;;;20.28;85.98;100687.47;171969;28;950;-67
2022/08/17 00:17:22;;;;;;;29.27;26.48;;;;;;;20.27;86.10;100683.16;171971;28;1254;-66
2022/08/17 00:17:28;;;;;;;29.35;26.60;;;;;;;20.26;86.01;100689.44;171974;28;879;-66
2022/08/17 00:17:33;;;;;;;29.87;26.97;;;;;;;20.27;86.05;100680.50;171961;28;1005;-66
2022/08/17 00:17:41;;;;;;;30.08;27.17;;;;;;;20.27;86.08;100685.78;171998;28;916;-66
2022/08/17 00:17:49;;;;;;;29.70;26.94;;;;;;;20.29;85.96;100691.78;171125;28;1555;-66
2022/08/17 00:17:55;;;;;;;29.97;27.19;;;;;;;20.30;86.07;100685.53;171262;28;1071;-66
2022/08/17 00:18:00;;;;;;;30.00;27.20;;;;;;;20.30;85.95;100689.97;171264;28;911;-66
2022/08/17 00:18:06;;;;;;;29.63;27.00;;;;;;;20.28;85.92;100684.81;171320;28;1513;-66
2022/08/17 00:18:12;;;;;;;29.80;27.13;;;;;;;20.29;86.09;100690.97;171255;28;882;-66
2022/08/17 00:18:18;;;;;;;30.04;27.24;;;;;;;20.27;86.13;100688.44;171244;28;1078;-66
2022/08/17 00:18:29;;;;;;;29.67;26.90;;;;;;;20.27;86.12;100685.78;171302;28;884;-66
2022/08/17 00:18:35;;;;;;;29.18;26.46;;;;;;;20.28;86.19;100682.16;170538;29;1544;-66
2022/08/17 00:18:42;;;;;;;29.38;26.50;;;;;;;20.29;86.12;100683.84;170622;29;1089;-66
2022/08/17 00:18:49;;;;;;;29.87;26.77;;;;;;;20.29;86.22;100683.84;170660;29;963;-66
2022/08/17 00:18:54;;;;;;;30.56;27.42;;;;;;;20.28;86.18;100682.16;170619;29;1005;-66
2022/08/17 00:19:05;;;;;;;31.38;28.08;;;;;;;20.28;85.98;100681.31;171231;28;837;-66
2022/08/17 00:19:13;;;;;;;31.88;28.54;;;;;;;20.27;86.15;100680.50;171882;28;1257;-67
2022/08/17 00:19:22;;;;;;;31.23;28.10;;;;;;;20.27;86.04;100680.50;171988;28;916;-67
2022/08/17 00:19:28;;;;;;;31.07;27.81;;;;;;;20.27;86.01;100679.66;171964;28;1153;-66
2022/08/17 00:19:33;;;;;;;30.97;27.70;;;;;;;20.28;86.15;100676.03;171963;28;994;-66
2022/08/17 00:19:38;;;;;;;31.13;27.92;;;;;;;20.29;86.05;100683.84;171920;28;1927;-66
2022/08/17 00:19:44;;;;;;;31.13;28.03;;;;;;;20.30;86.17;100679.38;172169;28;840;-66
2022/08/17 00:19:49;;;;;;;30.90;27.80;;;;;;;20.30;86.21;100677.59;171881;28;943;-66
2022/08/17 00:19:54;;;;;;;30.80;27.90;;;;;;;20.30;86.09;100680.25;171851;28;1081;-66
2022/08/17 00:20:00;;;;;;;30.37;27.40;;;;;;;20.30;86.02;100679.38;171953;28;832;-66
2022/08/17 00:20:06;;;;;;;30.03;27.00;;;;;;;20.30;86.09;100674.94;171940;28;1093;-66
2022/08/17 00:20:12;;;;;;;29.57;26.47;;;;;;;20.30;86.21;100672.28;171970;28;1029;-66
2022/08/17 00:20:19;;;;;;;29.43;26.43;;;;;;;20.31;85.89;100671.31;171930;28;989;-67
2022/08/17 00:20:24;;;;;;;29.10;26.07;;;;;;;20.31;85.99;100675.75;172003;28;955;-67
2022/08/17 00:20:30;;;;;;;28.88;25.85;;;;;;;20.31;86.03;100681.06;171969;28;857;-66
2022/08/17 00:20:35;;;;;;;28.73;25.83;;;;;;;20.31;86.03;100681.91;172541;28;1155;-67
2022/08/17 00:20:42;;;;;;;28.63;25.73;;;;;;;20.31;86.01;100676.59;172622;28;1054;-66
2022/08/17 00:20:48;;;;;;;28.68;25.80;;;;;;;20.31;86.06;100673.97;171875;28;1160;-66
2022/08/17 00:20:54;;;;;;;28.93;26.07;;;;;;;20.32;86.18;100675.63;171952;28;1086;-66
2022/08/17 00:21:03;;;;;;;29.42;26.54;;;;;;;20.31;85.92;100671.31;171820;28;1330;-66
2022/08/17 00:21:10;;;;;;;30.05;27.07;;;;;;;20.32;85.92;100677.44;171984;28;1003;-66
2022/08/17 00:21:19;;;;;;;30.47;27.30;;;;;;;20.32;85.90;100678.28;171990;28;951;-67
2022/08/17 00:21:25;;;;;;;30.10;26.95;;;;;;;20.33;85.98;100673.84;171954;28;1011;-66
2022/08/17 00:21:32;;;;;;;29.00;26.02;;;;;;;20.33;85.83;100679.13;171945;28;966;-66
2022/08/17 00:21:43;;;;;;;28.00;25.16;;;;;;;20.33;85.98;100668.53;171969;28;1145;-66
2022/08/17 00:21:52;;;;;;;27.84;24.94;;;;;;;20.33;85.92;100669.34;172429;28;1256;-66
2022/08/17 00:21:59;;;;;;;28.23;25.17;;;;;;;20.33;85.85;100674.66;172636;28;1077;-66
2022/08/17 00:22:06;;;;;;;28.97;25.97;;;;;;;20.33;85.82;100669.34;172676;28;910;-66
2022/08/17 00:22:11;;;;;;;29.33;26.30;;;;;;;20.34;85.89;100672.84;172654;28;939;-67
2022/08/17 00:22:16;;;;;;;29.47;26.57;;;;;;;20.33;85.99;100668.53;172639;28;1026;-66
2022/08/17 00:22:22;;;;;;;30.33;27.23;;;;;;;20.32;85.92;100667.69;172626;28;1042;-67
2022/08/17 00:22:27;;;;;;;30.73;27.53;;;;;;;20.31;86.13;100667.81;172619;28;1112;-66
2022/08/17 00:22:32;;;;;;;31.55;28.25;;;;;;;20.31;86.05;100666.00;172638;28;1033;-66
2022/08/17 00:22:38;;;;;;;32.03;28.70;;;;;;;20.32;85.98;100670.31;172671;28;966;-67
2022/08/17 00:22:44;;;;;;;31.98;28.67;;;;;;;20.33;86.19;100676.47;172632;28;1010;-67
2022/08/17 00:23:00;;;;;;;31.55;28.30;;;;;;;20.32;85.89;100672.13;172063;28;1045;-66
2022/08/17 00:23:12;;;;;;;30.92;27.88;;;;;;;20.33;85.85;100669.34;172684;28;1268;-66
2022/08/17 00:23:17;;;;;;;29.80;26.93;;;;;;;20.32;85.85;100672.97;172681;28;1271;-66
2022/08/17 00:23:23;;;;;;;29.35;26.55;;;;;;;20.32;85.93;100667.69;172676;28;844;-66
2022/08/17 00:23:29;;;;;;;28.58;25.85;;;;;;;20.34;85.86;100667.56;172708;28;729;-66
2022/08/17 00:23:35;;;;;;;27.85;25.15;;;;;;;20.34;86.05;100670.19;172747;28;855;-66
2022/08/17 00:23:43;;;;;;;27.27;24.63;;;;;;;20.33;85.84;100672.00;172773;28;1151;-66
2022/08/17 00:23:49;;;;;;;26.67;24.17;;;;;;;20.33;85.74;100669.34;172767;28;1169;-66
2022/08/17 00:23:54;;;;;;;26.48;24.00;;;;;;;20.35;85.99;100673.69;172704;28;860;-66
2022/08/17 00:24:00;;;;;;;27.13;24.53;;;;;;;20.35;85.85;100671.88;172740;28;851;-66
2022/08/17 00:24:06;;;;;;;27.75;25.10;;;;;;;20.33;85.96;100666.69;172719;28;1038;-66
2022/08/17 00:24:13;;;;;;;28.20;25.48;;;;;;;20.33;85.97;100669.34;172747;28;895;-66
2022/08/17 00:24:19;;;;;;;29.10;26.33;;;;;;;20.33;85.96;100671.19;172743;28;1158;-66
2022/08/17 00:24:24;;;;;;;29.85;27.05;;;;;;;20.34;85.96;100667.56;172687;28;1101;-66
2022/08/17 00:24:29;;;;;;;29.83;27.13;;;;;;;20.35;86.08;100673.69;172670;28;1080;-66
2022/08/17 00:24:35;;;;;;;29.63;26.93;;;;;;;20.35;86.13;100671.06;172722;28;1033;-66
2022/08/17 00:24:40;;;;;;;29.35;26.67;;;;;;;20.33;86.14;100672.00;172735;28;1069;-67
2022/08/17 00:24:45;;;;;;;28.53;25.97;;;;;;;20.33;86.09;100668.53;172716;28;1021;-67
2022/08/17 00:24:51;;;;;;;27.33;24.90;;;;;;;20.33;86.34;100669.34;172682;28;915;-66
2022/08/17 00:24:56;;;;;;;26.60;24.20;;;;;;;20.33;86.12;100669.34;172701;28;939;-67
2022/08/17 00:25:12;;;;;;;26.43;24.03;;;;;;;20.33;86.16;100664.06;172700;28;970;-66
2022/08/17 00:25:18;;;;;;;27.02;24.49;;;;;;;20.35;86.21;100671.88;172679;28;1260;-66
2022/08/17 00:25:24;;;;;;;27.93;25.40;;;;;;;20.32;86.10;100667.69;172739;28;1251;-66
2022/08/17 00:25:29;;;;;;;28.02;25.42;;;;;;;20.33;86.17;100668.53;173301;28;844;-66
2022/08/17 00:25:35;;;;;;;27.90;25.30;;;;;;;20.32;86.02;100669.47;173328;28;1069;-66
2022/08/17 00:25:44;;;;;;;27.80;25.23;;;;;;;20.32;86.16;100670.31;173378;28;1101;-66
2022/08/17 00:25:50;;;;;;;27.64;25.06;;;;;;;20.34;86.17;100670.19;173293;28;1121;-66
2022/08/17 00:25:56;;;;;;;27.35;24.70;;;;;;;20.34;86.01;100670.19;173309;28;919;-66
2022/08/17 00:26:01;;;;;;;27.33;24.67;;;;;;;20.35;85.98;100668.41;173315;28;1041;-66
2022/08/17 00:26:08;;;;;;;27.20;24.53;;;;;;;20.35;86.21;100671.06;173373;28;1096;-66
2022/08/17 00:26:14;;;;;;;27.14;24.46;;;;;;;20.35;86.16;100671.06;173334;28;919;-66
2022/08/17 00:26:23;;;;;;;27.00;24.30;;;;;;;20.36;86.20;100670.06;173347;28;985;-66
2022/08/17 00:26:28;;;;;;;26.87;24.28;;;;;;;20.35;86.18;100671.06;173308;28;1045;-66
2022/08/17 00:26:34;;;;;;;26.63;24.13;;;;;;;20.35;86.19;100671.88;173250;28;982;-66
2022/08/17 00:26:40;;;;;;;26.27;23.88;;;;;;;20.35;86.17;100671.88;173327;28;1014;-66
2022/08/17 00:26:46;;;;;;;25.88;23.45;;;;;;;20.36;85.90;100675.38;173316;28;915;-66
2022/08/17 00:26:51;;;;;;;25.77;23.27;;;;;;;20.36;86.29;100667.41;173322;28;954;-66
2022/08/17 00:26:58;;;;;;;25.73;23.23;;;;;;;20.33;86.09;100666.69;173239;28;1594;-66
2022/08/17 00:27:03;;;;;;;25.48;22.90;;;;;;;20.35;86.18;100665.75;173311;28;981;-66
2022/08/17 00:27:09;;;;;;;25.80;23.13;;;;;;;20.35;86.31;100666.56;173279;28;1442;-66
2022/08/17 00:27:14;;;;;;;26.02;23.42;;;;;;;20.35;86.23;100671.06;173304;28;1052;-66
2022/08/17 00:27:20;;;;;;;26.27;23.67;;;;;;;20.33;86.19;100669.34;173315;28;1013;-66
2022/08/17 00:27:25;;;;;;;25.92;23.33;;;;;;;20.32;86.38;100665.03;173288;28;989;-66
2022/08/17 00:27:32;;;;;;;25.70;23.20;;;;;;;20.33;86.20;100665.88;172648;28;839;-66
2022/08/17 00:27:38;;;;;;;25.76;23.30;;;;;;;20.31;86.39;100668.66;172690;28;990;-66
2022/08/17 00:27:44;;;;;;;26.35;23.83;;;;;;;20.32;86.47;100672.97;172631;28;1089;-66
2022/08/17 00:27:49;;;;;;;27.48;24.83;;;;;;;20.32;86.35;100666.81;172646;28;1030;-66
2022/08/17 00:27:55;;;;;;;28.83;26.07;;;;;;;20.33;86.39;100665.88;172636;28;914;-66
2022/08/17 00:28:01;;;;;;;29.85;26.92;;;;;;;20.33;86.55;100663.22;172642;28;914;-66
2022/08/17 00:28:06;;;;;;;30.48;27.38;;;;;;;20.33;86.58;100669.34;171893;28;1641;-66
2022/08/17 00:28:14;;;;;;;30.80;27.70;;;;;;;20.33;86.34;100669.34;172001;28;978;-66
2022/08/17 00:28:20;;;;;;;30.90;27.80;;;;;;;20.35;86.35;100671.06;171948;28;1039;-66
2022/08/17 00:28:26;;;;;;;30.98;27.83;;;;;;;20.35;86.45;100669.22;171963;28;907;-66
2022/08/17 00:28:32;;;;;;;31.33;28.23;;;;;;;20.33;86.24;100669.34;171993;28;978;-66
2022/08/17 00:28:39;;;;;;;31.70;28.55;;;;;;;20.33;86.43;100669.34;171998;28;844;-66
2022/08/17 00:28:44;;;;;;;31.92;28.66;;;;;;;20.33;86.36;100664.06;171956;28;995;-66
2022/08/17 00:28:50;;;;;;;31.83;28.57;;;;;;;20.35;86.57;100668.41;171963;28;1033;-66
2022/08/17 00:28:55;;;;;;;31.55;28.40;;;;;;;20.35;86.65;100665.75;172202;28;983;-66
2022/08/17 00:29:01;;;;;;;31.47;28.27;;;;;;;20.35;86.63;100665.75;172636;28;1255;-66
2022/08/17 00:29:07;;;;;;;30.83;27.73;;;;;;;20.35;86.53;100676.34;172640;28;820;-67
2022/08/17 00:29:13;;;;;;;30.17;27.23;;;;;;;20.36;86.66;100672.72;172678;28;931;-66
2022/08/17 00:29:18;;;;;;;29.85;26.85;;;;;;;20.36;86.44;100668.28;172648;28;848;-67
2022/08/17 00:29:24;;;;;;;29.73;26.73;;;;;;;20.36;86.53;100668.28;172645;28;1088;-66
2022/08/17 00:29:29;;;;;;;29.45;26.45;;;;;;;20.36;86.59;100670.91;172644;28;1101;-66
2022/08/17 00:29:34;;;;;;;29.40;26.43;;;;;;;20.37;86.77;100669.09;172638;28;1034;-66
2022/08/17 00:29:41;;;;;;;29.23;26.33;;;;;;;20.37;86.45;100669.09;172698;28;887;-66
2022/08/17 00:29:46;;;;;;;28.80;26.00;;;;;;;20.37;86.44;100672.59;172621;28;966;-66
2022/08/17 00:29:52;;;;;;;28.27;25.50;;;;;;;20.37;86.42;100671.75;172636;28;903;-66
2022/08/17 00:29:57;;;;;;;28.13;25.33;;;;;;;20.37;86.36;100674.38;172659;28;940;-66
2022/08/17 00:30:10;;;;;;;28.10;25.37;;;;;;;20.36;86.49;100670.91;172724;28;836;-66
2022/08/17 00:30:15;;;;;;;28.34;25.59;;;;;;;20.36;86.46;100670.91;173286;28;1256;-66
2022/08/17 00:30:21;;;;;;;28.77;26.07;;;;;;;20.36;86.58;100673.56;173317;28;891;-66
2022/08/17 00:30:28;;;;;;;28.60;25.90;;;;;;;20.37;86.63;100666.44;173331;28;1018;-65
2022/08/17 00:30:34;;;;;;;28.50;25.76;;;;;;;20.37;86.57;100669.09;173296;28;1420;-66
2022/08/17 00:30:42;;;;;;;28.38;25.52;;;;;;;20.37;86.66;100663.78;173346;28;915;-66
2022/08/17 00:30:50;;;;;;;28.53;25.72;;;;;;;20.36;86.56;100670.06;172438;28;1277;-66
2022/08/17 00:30:57;;;;;;;28.73;25.87;;;;;;;20.35;86.48;100666.56;172652;28;856;-66
2022/08/17 00:31:05;;;;;;;29.08;26.26;;;;;;;20.35;86.79;100665.75;172641;28;903;-66
2022/08/17 00:31:11;;;;;;;29.67;26.83;;;;;;;20.36;86.83;100670.06;172657;28;1022;-65
2022/08/17 00:31:17;;;;;;;29.75;26.88;;;;;;;20.37;86.89;100666.44;172627;28;926;-66
2022/08/17 00:31:23;;;;;;;29.90;27.10;;;;;;;20.35;86.50;100673.69;172666;28;985;-66
2022/08/17 00:31:28;;;;;;;30.58;27.70;;;;;;;20.35;86.82;100671.88;172661;28;974;-65
2022/08/17 00:31:36;;;;;;;31.10;28.10;;;;;;;20.36;86.97;100667.41;172657;28;904;-66
2022/08/17 00:31:41;;;;;;;31.62;28.60;;;;;;;20.36;86.89;100670.06;172666;28;1008;-66
2022/08/17 00:31:48;;;;;;;32.27;29.17;;;;;;;20.37;87.18;100674.38;172637;28;1021;-66
2022/08/17 00:31:53;;;;;;;33.00;29.77;;;;;;;20.37;86.98;100666.44;172562;28;1058;-66
2022/08/17 00:32:00;;;;;;;32.93;29.67;;;;;;;20.36;86.98;100672.72;172639;28;1038;-66
2022/08/17 00:32:06;;;;;;;32.58;29.38;;;;;;;20.34;87.10;100670.19;171869;28;1250;-66
2022/08/17 00:32:13;;;;;;;32.73;29.47;;;;;;;20.33;86.96;100666.69;171973;28;1307;-66
2022/08/17 00:32:19;;;;;;;32.76;29.58;;;;;;;20.35;87.06;100669.22;171932;28;967;-65
2022/08/17 00:32:24;;;;;;;33.45;30.05;;;;;;;20.35;86.99;100671.06;171968;28;903;-66
2022/08/17 00:32:37;;;;;;;33.37;30.03;;;;;;;20.36;87.17;100670.06;171925;28;1022;-66
2022/08/17 00:32:46;;;;;;;33.28;29.94;;;;;;;20.37;86.99;100669.94;171946;28;1248;-66
2022/08/17 00:32:51;;;;;;;32.60;29.33;;;;;;;20.38;87.08;100670.75;172583;28;957;-66
2022/08/17 00:32:57;;;;;;;32.53;29.23;;;;;;;20.37;86.98;100669.09;172631;28;895;-66
2022/08/17 00:33:19;;;;;;;33.10;29.73;;;;;;;20.37;87.02;100671.75;172594;28;926;-66
2022/08/17 00:33:29;;;;;;;33.33;30.04;;;;;;;20.37;86.98;100671.75;172590;28;1256;-66
2022/08/17 00:33:36;;;;;;;33.33;30.13;;;;;;;20.36;86.99;100670.06;172612;28;1184;-65
2022/08/17 00:33:44;;;;;;;33.02;29.90;;;;;;;20.36;87.04;100667.41;172680;28;1144;-66
2022/08/17 00:33:50;;;;;;;32.90;30.00;;;;;;;20.36;87.02;100667.41;172642;28;899;-66
2022/08/17 00:33:55;;;;;;;32.90;29.95;;;;;;;20.36;86.95;100667.41;172621;28;1082;-66
2022/08/17 00:34:02;;;;;;;33.13;30.03;;;;;;;20.36;87.10;100667.41;172630;28;1033;-66
2022/08/17 00:34:08;;;;;;;32.80;29.72;;;;;;;20.36;87.27;100664.78;172736;28;986;-66
2022/08/17 00:34:14;;;;;;;32.50;29.35;;;;;;;20.36;87.22;100668.28;172737;28;896;-67